Terminal Aerodrome Forecast
Issued by NWS

Home | Current Version | Previous Version | Text Only | Print | Product List | Glossary On
Versions: 1 2 3 4 5 6 7 8 9 10 11 12 13 14
000
FTUS42 KMLB 192300
TAFFPR
TAF
KFPR 192336Z 2000/2024 VRB03KT P6SM -SHRA SCT020 OVC080
     FM200400 VRB04KT P6SM VCSH BKN030 OVC050
      TEMPO 2004/2008 5SM SHRA BKN025 OVC050
     FM201400 23008KT P6SM VCSH BKN030 OVC050 PROB30 2014/2018 3SM
      SHRA BKN020
     FM201800 26010KT P6SM VCSH SCT030 OVC050
      TEMPO 2018/2021 3SM TSRA BKN025CB=

USA.gov is the U.S. government's official web portal to all federal, state and local government web resources and services.